createdAt,value
2022-10-01T00:00:39.319Z,-39.95
2022-10-01T00:01:39.380Z,-39.95
2022-10-01T00:02:39.387Z,-39.95
2022-10-01T00:03:39.387Z,-39.95
2022-10-01T00:04:39.406Z,-39.95
2022-10-01T00:05:39.427Z,-39.95
2022-10-01T00:06:39.489Z,-39.95
2022-10-01T00:07:39.440Z,-39.95
2022-10-01T00:08:39.443Z,-39.95
2022-10-01T00:09:39.461Z,-39.95
2022-10-01T00:10:39.466Z,-39.95
2022-10-01T00:11:39.521Z,-39.95
2022-10-01T00:12:39.514Z,-39.95
2022-10-01T00:13:39.511Z,-39.95
2022-10-01T00:14:39.550Z,-39.95
2022-10-01T00:15:39.541Z,-39.95
2022-10-01T00:16:39.666Z,-39.95
2022-10-01T00:17:39.585Z,-39.95
2022-10-01T00:18:39.611Z,-39.95
2022-10-01T00:19:39.611Z,-39.95
2022-10-01T00:20:39.593Z,-39.95
2022-10-01T00:21:39.638Z,-39.95
2022-10-01T00:22:39.644Z,-39.95
2022-10-01T00:23:39.652Z,-39.95
2022-10-01T00:24:39.661Z,-39.95
2022-10-01T00:25:39.666Z,-39.95
2022-10-01T00:26:39.690Z,-39.95
2022-10-01T00:27:39.684Z,-39.95
2022-10-01T00:28:39.718Z,-39.95
2022-10-01T00:29:39.833Z,-39.95
2022-10-01T00:30:40.526Z,-39.95
2022-10-01T00:31:40.046Z,-39.95
2022-10-01T00:32:39.775Z,-39.95
2022-10-01T00:33:39.793Z,-39.95
2022-10-01T00:34:39.813Z,-39.95
2022-10-01T00:35:39.805Z,-39.95
2022-10-01T00:36:39.850Z,-39.95
2022-10-01T00:37:39.875Z,-39.95
2022-10-01T00:38:39.855Z,-39.95
2022-10-01T00:39:39.895Z,-39.95
2022-10-01T00:40:39.883Z,-39.95
2022-10-01T00:41:40.004Z,-39.95
2022-10-01T00:42:39.936Z,-39.95
2022-10-01T00:43:39.923Z,-39.95
2022-10-01T00:44:39.944Z,-39.95
2022-10-01T00:45:40.037Z,-39.95
2022-10-01T00:46:40.016Z,-39.95
2022-10-01T00:47:40.016Z,-39.95
2022-10-01T00:48:40.020Z,-39.95
2022-10-01T00:49:40.035Z,-39.95
2022-10-01T00:50:40.087Z,-39.95
2022-10-01T00:51:40.060Z,-39.95
2022-10-01T00:52:40.127Z,-39.95
2022-10-01T00:53:40.078Z,-39.95
2022-10-01T00:54:40.123Z,-39.95
2022-10-01T00:55:40.108Z,-39.95
2022-10-01T00:56:40.130Z,-39.95
2022-10-01T00:57:40.110Z,-39.95
2022-10-01T00:58:40.121Z,-39.95
2022-10-01T00:59:40.831Z,-39.95
2022-10-01T01:00:40.142Z,-39.95
2022-10-01T01:01:40.249Z,-39.95
2022-10-01T01:02:40.229Z,-39.95
2022-10-01T01:03:40.169Z,-39.95
2022-10-01T01:04:40.182Z,-39.95
2022-10-01T01:05:40.228Z,-39.95
2022-10-01T01:06:40.236Z,-39.95
2022-10-01T01:07:40.231Z,-39.95
2022-10-01T01:08:40.255Z,-39.95
2022-10-01T01:09:40.272Z,-39.95
2022-10-01T01:10:40.292Z,-39.95
2022-10-01T01:11:40.292Z,-39.95
2022-10-01T01:12:40.304Z,-39.95
2022-10-01T01:13:40.323Z,-39.95
2022-10-01T01:14:40.323Z,-39.95
2022-10-01T01:15:40.456Z,-39.95
2022-10-01T01:16:40.372Z,-39.95
2022-10-01T01:17:40.392Z,-39.95
2022-10-01T01:18:40.384Z,-39.95
2022-10-01T01:19:40.397Z,-39.95
2022-10-01T01:20:40.405Z,-39.95
2022-10-01T01:21:40.444Z,-39.95
2022-10-01T01:22:40.435Z,-39.95
2022-10-01T01:23:40.516Z,-39.95
2022-10-01T01:24:40.460Z,-39.95
2022-10-01T01:25:40.479Z,-39.95
2022-10-01T01:26:40.495Z,-39.95
2022-10-01T01:27:40.498Z,-39.95
2022-10-01T01:28:41.477Z,-39.95
2022-10-01T01:29:40.537Z,-39.95
2022-10-01T01:30:41.364Z,-39.95
2022-10-01T01:31:40.640Z,-39.95
2022-10-01T01:32:40.586Z,-39.95
2022-10-01T01:33:40.616Z,-39.95
2022-10-01T01:34:40.627Z,-39.95
2022-10-01T01:35:40.659Z,-39.95
2022-10-01T01:36:40.640Z,-39.95
2022-10-01T01:37:40.657Z,-39.95
2022-10-01T01:38:40.668Z,-39.95
2022-10-01T01:39:40.687Z,-39.95
2022-10-01T01:40:40.717Z,-39.95
2022-10-01T01:41:40.785Z,-39.95
2022-10-01T01:42:40.736Z,-39.95
2022-10-01T01:43:40.767Z,-39.95
2022-10-01T01:44:40.752Z,-39.95
2022-10-01T01:45:40.811Z,-39.95
2022-10-01T01:46:40.779Z,-39.95
2022-10-01T01:47:40.800Z,-39.95
2022-10-01T01:48:40.809Z,-39.95
2022-10-01T01:49:40.810Z,-39.95
2022-10-01T01:50:40.838Z,-39.95
2022-10-01T01:51:40.860Z,-39.95
2022-10-01T01:52:40.870Z,-39.95
2022-10-01T01:53:40.881Z,-39.95
2022-10-01T01:54:40.895Z,-39.95
2022-10-01T01:55:40.920Z,-39.95
2022-10-01T01:56:40.924Z,-39.95
2022-10-01T01:57:40.920Z,-39.95
2022-10-01T01:58:40.942Z,-39.95
2022-10-01T01:59:40.949Z,-39.95
2022-10-01T02:00:40.984Z,-39.95
2022-10-01T02:01:41.027Z,-39.95
2022-10-01T02:02:41.021Z,-39.95
2022-10-01T02:03:40.994Z,-39.95
2022-10-01T02:04:41.104Z,-39.95
2022-10-01T02:05:41.042Z,-39.95
2022-10-01T02:06:41.035Z,-39.95
2022-10-01T02:07:41.062Z,-39.95
2022-10-01T02:08:41.074Z,-39.95
2022-10-01T02:09:41.073Z,-39.95
2022-10-01T02:10:41.149Z,-39.95
2022-10-01T02:11:41.103Z,-39.95
2022-10-01T02:12:41.133Z,-39.95
2022-10-01T02:13:41.153Z,-39.95
2022-10-01T02:14:41.157Z,-39.95
2022-10-01T02:15:41.236Z,-39.95
2022-10-01T02:16:48.692Z,-39.95
2022-10-01T02:17:41.214Z,-39.95
2022-10-01T02:18:41.201Z,-39.95
2022-10-01T02:19:41.220Z,-39.95
2022-10-01T02:20:41.355Z,-39.95
2022-10-01T02:21:41.234Z,-39.95
2022-10-01T02:22:41.278Z,-39.95
2022-10-01T02:23:41.262Z,-39.95
2022-10-01T02:24:41.291Z,-39.95
2022-10-01T02:25:41.341Z,-39.95
2022-10-01T02:26:41.327Z,-39.95
2022-10-01T02:27:41.448Z,-39.95
2022-10-01T02:28:41.358Z,-39.95
2022-10-01T02:29:41.348Z,-39.95
2022-10-01T02:30:41.398Z,-39.95
2022-10-01T02:31:41.459Z,-39.95
2022-10-01T02:32:41.409Z,-39.95
2022-10-01T02:33:41.418Z,-39.95
2022-10-01T02:34:41.430Z,-39.95
2022-10-01T02:35:41.449Z,-39.95
2022-10-01T02:36:41.450Z,-39.95
2022-10-01T02:37:41.459Z,-39.95
2022-10-01T02:38:41.605Z,-39.95
2022-10-01T02:39:41.506Z,-39.95
2022-10-01T02:40:41.519Z,-39.95
2022-10-01T02:41:41.510Z,-39.95
2022-10-01T02:42:41.531Z,-39.95
2022-10-01T02:43:43.082Z,-39.95
2022-10-01T02:44:41.576Z,-39.95
2022-10-01T02:45:41.814Z,-39.95
2022-10-01T02:46:41.591Z,-39.95
2022-10-01T02:47:41.594Z,-39.95
2022-10-01T02:48:41.610Z,-39.95
2022-10-01T02:49:41.610Z,-39.95
2022-10-01T02:50:41.644Z,-39.95
2022-10-01T02:51:41.642Z,-39.95
2022-10-01T02:52:41.662Z,-39.95
2022-10-01T02:53:41.665Z,-39.95
2022-10-01T02:54:41.704Z,-39.95
2022-10-01T02:55:41.692Z,-39.95
2022-10-01T02:56:48.636Z,-39.95
2022-10-01T02:57:42.743Z,-39.95
2022-10-01T02:58:41.745Z,-39.95
2022-10-01T02:59:41.783Z,-39.95
2022-10-01T03:00:41.795Z,-39.95
2022-10-01T03:01:41.910Z,-39.95
2022-10-01T03:02:41.826Z,-39.95
2022-10-01T03:03:41.835Z,-39.95
2022-10-01T03:04:41.838Z,-39.95
2022-10-01T03:05:41.826Z,-39.95
2022-10-01T03:06:41.847Z,-39.95
2022-10-01T03:07:41.870Z,-39.95
2022-10-01T03:08:42.581Z,-39.95
2022-10-01T03:09:41.907Z,-39.95
2022-10-01T03:10:45.998Z,-39.95
2022-10-01T03:11:41.904Z,-39.95
2022-10-01T03:12:41.915Z,-39.95
2022-10-01T03:13:41.927Z,-39.95
2022-10-01T03:14:41.983Z,-39.95
2022-10-01T03:15:41.997Z,-39.95
2022-10-01T03:16:41.987Z,-39.95
2022-10-01T03:17:42.006Z,-39.95
2022-10-01T03:18:42.014Z,-39.95
2022-10-01T03:19:42.076Z,-39.95
2022-10-01T03:20:42.037Z,-39.95
2022-10-01T03:21:42.040Z,-39.95
2022-10-01T03:22:42.063Z,-39.95
2022-10-01T03:23:42.097Z,-39.95
2022-10-01T03:24:42.129Z,-39.95
2022-10-01T03:25:42.138Z,-39.95
2022-10-01T03:26:42.210Z,-39.95
2022-10-01T03:27:42.139Z,-39.95
2022-10-01T03:28:42.150Z,-39.95
2022-10-01T03:29:42.191Z,-39.95
2022-10-01T03:30:42.180Z,-39.95
2022-10-01T03:31:42.253Z,-39.95
2022-10-01T03:32:42.205Z,-39.95
2022-10-01T03:33:42.210Z,-39.95
2022-10-01T03:34:42.244Z,-39.95
2022-10-01T03:35:42.213Z,-39.95
2022-10-01T03:36:42.242Z,-39.95
2022-10-01T03:37:42.251Z,-39.95
2022-10-01T03:38:42.263Z,-39.95
2022-10-01T03:39:42.291Z,-39.95
2022-10-01T03:40:42.295Z,-39.95
2022-10-01T03:41:42.300Z,-39.95
2022-10-01T03:42:42.494Z,-39.95
2022-10-01T03:43:42.343Z,-39.95
2022-10-01T03:44:42.393Z,-39.95
2022-10-01T03:45:42.396Z,-39.95
2022-10-01T03:46:42.404Z,-39.95
2022-10-01T03:47:42.385Z,-39.95
2022-10-01T03:48:42.421Z,-39.95
2022-10-01T03:49:42.460Z,-39.95
2022-10-01T03:50:42.453Z,-39.95
2022-10-01T03:51:42.446Z,-39.95
2022-10-01T03:52:42.455Z,-39.95
2022-10-01T03:53:42.469Z,-39.95
2022-10-01T03:54:43.165Z,-39.95
2022-10-01T03:55:42.495Z,-39.95
2022-10-01T03:56:42.562Z,-39.95
2022-10-01T03:57:42.560Z,-39.95
2022-10-01T03:58:42.561Z,-39.95
2022-10-01T03:59:42.587Z,-39.95
2022-10-01T04:00:42.633Z,-39.95
2022-10-01T04:01:42.658Z,-39.95
2022-10-01T04:02:42.653Z,-39.95
2022-10-01T04:03:42.613Z,-39.95
2022-10-01T04:04:42.637Z,-39.95
2022-10-01T04:05:42.653Z,-39.95
2022-10-01T04:06:42.672Z,-39.95
2022-10-01T04:07:42.679Z,-39.95
2022-10-01T04:08:42.749Z,-39.95
2022-10-01T04:09:42.706Z,-39.95
2022-10-01T04:10:42.756Z,-39.95
2022-10-01T04:11:42.749Z,-39.95
2022-10-01T04:12:42.794Z,-39.95
2022-10-01T04:13:42.839Z,-39.95
2022-10-01T04:14:42.792Z,-39.95
2022-10-01T04:15:42.800Z,-39.95
2022-10-01T04:16:42.820Z,-39.95
2022-10-01T04:17:46.002Z,-39.95
2022-10-01T04:18:42.860Z,-39.95
2022-10-01T04:19:42.840Z,-39.95
2022-10-01T04:20:42.871Z,-39.95
2022-10-01T04:21:43.022Z,-39.95
2022-10-01T04:22:42.914Z,-39.95
2022-10-01T04:23:42.954Z,-39.95
2022-10-01T04:24:42.944Z,-39.95
2022-10-01T04:25:42.932Z,-39.95
2022-10-01T04:26:42.950Z,-39.95
2022-10-01T04:27:43.084Z,-39.95
2022-10-01T04:28:43.034Z,-39.95
2022-10-01T04:29:42.972Z,-39.95
2022-10-01T04:30:43.004Z,-39.95
2022-10-01T04:31:43.067Z,-39.95
2022-10-01T04:32:43.032Z,-39.95
2022-10-01T04:33:43.046Z,-39.95
2022-10-01T04:34:43.052Z,-39.95
2022-10-01T04:35:43.063Z,-39.95
2022-10-01T04:36:43.067Z,-39.95
2022-10-01T04:37:43.097Z,-39.95
2022-10-01T04:38:43.137Z,-39.95
2022-10-01T04:39:43.141Z,-39.95
2022-10-01T04:40:43.163Z,-39.95
2022-10-01T04:41:43.247Z,-39.95
2022-10-01T04:42:43.165Z,-39.95
2022-10-01T04:43:43.216Z,-39.95
2022-10-01T04:44:43.208Z,-39.95
2022-10-01T04:45:43.230Z,-39.95
2022-10-01T04:46:43.270Z,-39.95
2022-10-01T04:47:43.296Z,-39.95
2022-10-01T04:48:43.300Z,-39.95
2022-10-01T04:49:43.258Z,-39.95
2022-10-01T04:50:43.286Z,-39.95
2022-10-01T04:51:43.306Z,-39.95
2022-10-01T04:52:43.367Z,-39.95
2022-10-01T04:53:43.297Z,-39.95
2022-10-01T04:54:43.397Z,-39.95
2022-10-01T04:55:43.328Z,-39.95
2022-10-01T04:56:43.358Z,-39.95
2022-10-01T04:57:43.381Z,-39.95
2022-10-01T04:58:43.394Z,-39.95
2022-10-01T04:59:43.381Z,-39.95
2022-10-01T05:00:43.440Z,-39.95
2022-10-01T05:01:43.553Z,-39.95
2022-10-01T05:02:43.462Z,-39.95
2022-10-01T05:03:43.460Z,-39.95
2022-10-01T05:04:43.489Z,-39.95
2022-10-01T05:05:43.491Z,-39.95
2022-10-01T05:06:43.499Z,-39.95
2022-10-01T05:07:43.511Z,-39.95
2022-10-01T05:08:43.551Z,-39.95
2022-10-01T05:09:43.550Z,-39.95
2022-10-01T05:10:43.565Z,-39.95
2022-10-01T05:11:43.549Z,-39.95
2022-10-01T05:12:43.572Z,-39.95
2022-10-01T05:13:43.774Z,-39.95
2022-10-01T05:14:43.613Z,-39.95
2022-10-01T05:15:43.630Z,-39.95
2022-10-01T05:16:43.747Z,-39.95
2022-10-01T05:17:43.630Z,-39.95
2022-10-01T05:18:43.686Z,-39.95
2022-10-01T05:19:43.683Z,-39.95
2022-10-01T05:20:43.675Z,-39.95
2022-10-01T05:21:43.711Z,-39.95
2022-10-01T05:22:43.707Z,-39.95
2022-10-01T05:23:43.734Z,-39.95
2022-10-01T05:24:43.744Z,-39.95
2022-10-01T05:25:43.753Z,-39.95
2022-10-01T05:26:43.782Z,-39.95
2022-10-01T05:27:43.834Z,-39.95
2022-10-01T05:28:43.947Z,-39.95
2022-10-01T05:29:43.786Z,-39.95
2022-10-01T05:30:43.824Z,-39.95
2022-10-01T05:31:43.892Z,-39.95
2022-10-01T05:32:43.854Z,-39.95
2022-10-01T05:33:43.879Z,-39.95
2022-10-01T05:34:43.890Z,-39.95
2022-10-01T05:35:43.887Z,-39.95
2022-10-01T05:36:43.975Z,-39.95
2022-10-01T05:37:43.920Z,-39.95
2022-10-01T05:38:43.956Z,-39.95
2022-10-01T05:39:43.959Z,-39.95
2022-10-01T05:40:44.019Z,-39.95
2022-10-01T05:41:44.027Z,-39.95
2022-10-01T05:42:44.037Z,-39.95
2022-10-01T05:43:44.084Z,-39.95
2022-10-01T05:44:44.036Z,-39.95
2022-10-01T05:45:44.076Z,-39.95
2022-10-01T05:46:44.089Z,-39.95
2022-10-01T05:47:44.148Z,-39.95
2022-10-01T05:48:44.078Z,-39.95
2022-10-01T05:49:44.121Z,-39.95
2022-10-01T05:50:44.096Z,-39.95
2022-10-01T05:51:44.099Z,-39.95
2022-10-01T05:52:44.160Z,-39.95
2022-10-01T05:53:48.238Z,-39.95
2022-10-01T05:54:45.187Z,-39.95
2022-10-01T05:55:44.193Z,-39.95
2022-10-01T05:56:44.200Z,-39.95
2022-10-01T05:57:44.201Z,-39.95
2022-10-01T05:58:44.270Z,-39.95
2022-10-01T05:59:44.239Z,-39.95
2022-10-01T06:00:44.227Z,-39.95
2022-10-01T06:01:44.297Z,-39.95
2022-10-01T06:02:45.020Z,-39.95
2022-10-01T06:03:44.383Z,-39.95
2022-10-01T06:04:44.331Z,-39.95
2022-10-01T06:05:44.350Z,-39.95
2022-10-01T06:06:44.366Z,-39.95
2022-10-01T06:07:44.369Z,-39.95
2022-10-01T06:08:44.364Z,-39.95
2022-10-01T06:09:44.436Z,-39.95
2022-10-01T06:10:44.447Z,-39.95
2022-10-01T06:11:44.375Z,-39.95
2022-10-01T06:12:44.495Z,-39.95
2022-10-01T06:13:44.465Z,-39.95
2022-10-01T06:14:44.483Z,-39.95
2022-10-01T06:15:45.203Z,-39.95
2022-10-01T06:16:44.559Z,-39.95
2022-10-01T06:17:44.473Z,-39.95
2022-10-01T06:18:44.525Z,-39.95
2022-10-01T06:19:44.493Z,-39.95
2022-10-01T06:20:44.534Z,-39.95
2022-10-01T06:21:44.555Z,-39.95
2022-10-01T06:22:44.546Z,-39.95
2022-10-01T06:23:44.615Z,-39.95
2022-10-01T06:24:44.594Z,-39.95
2022-10-01T06:25:44.607Z,-39.95
2022-10-01T06:26:44.605Z,-39.95
2022-10-01T06:27:44.682Z,-39.95
2022-10-01T06:28:44.688Z,-39.95
2022-10-01T06:29:44.637Z,-39.95
2022-10-01T06:30:44.685Z,-39.95
2022-10-01T06:31:44.708Z,-39.95
2022-10-01T06:32:44.700Z,-39.95
2022-10-01T06:33:44.719Z,-39.95
2022-10-01T06:34:44.760Z,-39.95
2022-10-01T06:35:44.730Z,-39.95
2022-10-01T06:36:44.940Z,-39.95
2022-10-01T06:37:44.760Z,-39.95
2022-10-01T06:38:44.778Z,-39.95
2022-10-01T06:39:44.817Z,-39.95
2022-10-01T06:40:44.766Z,-39.95
2022-10-01T06:41:44.848Z,-39.95
2022-10-01T06:42:45.802Z,-39.95
2022-10-01T06:43:44.850Z,-39.95
2022-10-01T06:44:44.851Z,-39.95
2022-10-01T06:45:44.893Z,-39.95
2022-10-01T06:46:44.855Z,-39.95
2022-10-01T06:47:44.884Z,-39.95
2022-10-01T06:48:44.912Z,-39.95
2022-10-01T06:49:47.659Z,-39.95
2022-10-01T06:50:44.901Z,-39.95
2022-10-01T06:51:44.930Z,-39.95
2022-10-01T06:52:44.992Z,-39.95
2022-10-01T06:53:45.000Z,-39.95
2022-10-01T06:54:44.963Z,-39.95
2022-10-01T06:55:44.982Z,-39.95
2022-10-01T06:56:45.013Z,-39.95
2022-10-01T06:57:44.993Z,-39.95
2022-10-01T06:58:45.084Z,-39.95
2022-10-01T06:59:45.046Z,-39.95
2022-10-01T07:00:45.132Z,-39.95
2022-10-01T07:01:45.125Z,-39.95
2022-10-01T07:02:45.162Z,-39.95
2022-10-01T07:03:45.097Z,-39.95
2022-10-01T07:04:45.084Z,-39.95
2022-10-01T07:05:45.139Z,-39.95
2022-10-01T07:06:45.196Z,-39.95
2022-10-01T07:07:45.212Z,-39.95
2022-10-01T07:08:45.189Z,-39.95
2022-10-01T07:09:45.224Z,-39.95
2022-10-01T07:10:45.230Z,-39.95
2022-10-01T07:11:45.285Z,-39.95
2022-10-01T07:12:45.250Z,-39.95
2022-10-01T07:13:45.246Z,-39.95
2022-10-01T07:14:45.256Z,-39.95
2022-10-01T07:15:45.242Z,-39.95
2022-10-01T07:16:45.340Z,-39.95
2022-10-01T07:17:45.288Z,-39.95
2022-10-01T07:18:45.308Z,-39.95
2022-10-01T07:19:45.309Z,-39.95
2022-10-01T07:20:45.319Z,-39.95
2022-10-01T07:21:45.362Z,-39.95
2022-10-01T07:22:45.349Z,-39.95
2022-10-01T07:23:45.431Z,-39.95
2022-10-01T07:24:45.408Z,-39.95
2022-10-01T07:25:45.391Z,-39.95
2022-10-01T07:26:45.400Z,-39.95
2022-10-01T07:27:45.508Z,-39.95
2022-10-01T07:28:45.452Z,-39.95
2022-10-01T07:29:45.455Z,-39.95
2022-10-01T07:30:45.486Z,-39.95
2022-10-01T07:31:45.514Z,-39.95
2022-10-01T07:32:45.520Z,-39.95
2022-10-01T07:33:45.532Z,-39.95
2022-10-01T07:34:45.532Z,-39.95
2022-10-01T07:35:45.544Z,-39.95
2022-10-01T07:36:45.582Z,-39.95
2022-10-01T07:37:45.586Z,-39.95
2022-10-01T07:38:45.663Z,-39.95
2022-10-01T07:39:45.634Z,-39.95
2022-10-01T07:40:45.626Z,-39.95
2022-10-01T07:41:45.654Z,-39.95
2022-10-01T07:42:45.657Z,-39.95
2022-10-01T07:43:45.685Z,-39.95
2022-10-01T07:44:45.702Z,-39.95
2022-10-01T07:45:45.777Z,-39.95
2022-10-01T07:46:45.726Z,-39.95
2022-10-01T07:47:45.756Z,-39.95
2022-10-01T07:48:45.757Z,-39.95
2022-10-01T07:49:45.757Z,-39.95
2022-10-01T07:50:45.750Z,-39.95
2022-10-01T07:51:45.875Z,-39.95
2022-10-01T07:52:45.769Z,-39.95
2022-10-01T07:53:45.812Z,-39.95
2022-10-01T07:54:45.828Z,-39.95
2022-10-01T07:55:45.825Z,-39.95
2022-10-01T07:56:45.839Z,-39.95
2022-10-01T07:57:45.870Z,-39.95
2022-10-01T07:58:45.881Z,-39.95
2022-10-01T07:59:45.871Z,-39.95
2022-10-01T08:00:46.028Z,-39.95
2022-10-01T08:01:45.916Z,-39.95
2022-10-01T08:02:46.047Z,-39.95
2022-10-01T08:03:45.949Z,-39.95
2022-10-01T08:04:46.117Z,-39.95
2022-10-01T08:05:46.175Z,-39.95
2022-10-01T08:06:45.993Z,-39.95
2022-10-01T08:07:46.087Z,-39.95
2022-10-01T08:08:46.024Z,-39.95
2022-10-01T08:09:46.092Z,-39.95
2022-10-01T08:10:46.012Z,-39.95
2022-10-01T08:11:46.034Z,-39.95
2022-10-01T08:12:46.035Z,-39.95
2022-10-01T08:13:46.092Z,-39.95
2022-10-01T08:14:46.073Z,-39.95
2022-10-01T08:15:46.139Z,-39.95
2022-10-01T08:16:46.214Z,-39.95
2022-10-01T08:17:46.149Z,-39.95
2022-10-01T08:18:46.194Z,-39.95
2022-10-01T08:19:46.143Z,-39.95
2022-10-01T08:20:46.854Z,-39.95
2022-10-01T08:21:46.186Z,-39.95
2022-10-01T08:22:46.203Z,-39.95
2022-10-01T08:23:46.217Z,-39.95
2022-10-01T08:24:46.227Z,-39.95
2022-10-01T08:25:46.236Z,-39.95
2022-10-01T08:26:46.237Z,-39.95
2022-10-01T08:27:46.351Z,-39.95
2022-10-01T08:28:46.260Z,-39.95
2022-10-01T08:29:46.295Z,-39.95
2022-10-01T08:30:46.315Z,-39.95
2022-10-01T08:31:46.351Z,-39.95
2022-10-01T08:32:46.328Z,-39.95
2022-10-01T08:33:46.338Z,-39.95
2022-10-01T08:34:46.349Z,-39.95
2022-10-01T08:35:46.361Z,-39.95
2022-10-01T08:36:46.390Z,-39.95
2022-10-01T08:37:46.421Z,-39.95
2022-10-01T08:38:46.398Z,-39.95
2022-10-01T08:39:46.422Z,-39.95
2022-10-01T08:40:46.492Z,-39.95
2022-10-01T08:41:46.442Z,-39.95
2022-10-01T08:42:46.492Z,-39.95
2022-10-01T08:43:46.510Z,-39.95
2022-10-01T08:44:46.513Z,-39.95
2022-10-01T08:45:46.652Z,-39.95
2022-10-01T08:46:46.526Z,-39.95
2022-10-01T08:47:46.552Z,-39.95
2022-10-01T08:48:46.536Z,-39.95
2022-10-01T08:49:46.544Z,-39.95
2022-10-01T08:50:46.571Z,-39.95
2022-10-01T08:51:46.584Z,-39.95
2022-10-01T08:52:46.603Z,-39.95
2022-10-01T08:53:46.616Z,-39.95
2022-10-01T08:54:46.616Z,-39.95
2022-10-01T08:55:46.628Z,-39.95
2022-10-01T08:56:46.635Z,-39.95
2022-10-01T08:57:46.674Z,-39.95
2022-10-01T08:58:46.695Z,-39.95
2022-10-01T08:59:46.683Z,-39.95
2022-10-01T09:00:46.799Z,-39.95
2022-10-01T09:01:46.794Z,-39.95
2022-10-01T09:02:46.769Z,-39.95
2022-10-01T09:03:46.808Z,-39.95
2022-10-01T09:04:46.833Z,-39.95
2022-10-01T09:05:46.788Z,-39.95
2022-10-01T09:06:46.777Z,-39.95
2022-10-01T09:07:46.824Z,-39.95
2022-10-01T09:08:46.809Z,-39.95
2022-10-01T09:09:47.739Z,-39.95
2022-10-01T09:10:46.837Z,-39.95
2022-10-01T09:11:46.863Z,-39.95
2022-10-01T09:12:46.878Z,-39.95
2022-10-01T09:13:50.076Z,-39.95
2022-10-01T09:14:47.471Z,-39.95
2022-10-01T09:15:46.912Z,-39.95
2022-10-01T09:16:46.966Z,-39.95
2022-10-01T09:17:46.943Z,-39.95
2022-10-01T09:18:46.955Z,-39.95
2022-10-01T09:19:47.989Z,-39.95
2022-10-01T09:20:47.085Z,-39.95
2022-10-01T09:21:46.983Z,-39.95
2022-10-01T09:22:47.013Z,-39.95
2022-10-01T09:23:47.014Z,-39.95
2022-10-01T09:24:47.020Z,-39.95
2022-10-01T09:25:47.016Z,-39.95
2022-10-01T09:26:47.035Z,-39.95
2022-10-01T09:27:47.092Z,-39.95
2022-10-01T09:28:47.225Z,-39.95
2022-10-01T09:29:47.057Z,-39.95
2022-10-01T09:30:47.126Z,-39.95
2022-10-01T09:31:47.124Z,-39.95
2022-10-01T09:32:47.143Z,-39.95
2022-10-01T09:33:47.142Z,-39.95
2022-10-01T09:34:47.147Z,-39.95
2022-10-01T09:35:47.168Z,-39.95
2022-10-01T09:36:47.158Z,-39.95
2022-10-01T09:37:47.218Z,-39.95
2022-10-01T09:38:47.199Z,-39.95
2022-10-01T09:39:47.275Z,-39.95
2022-10-01T09:40:47.209Z,-39.95
2022-10-01T09:41:47.297Z,-39.95
2022-10-01T09:42:47.275Z,-39.95
2022-10-01T09:43:47.268Z,-39.95
2022-10-01T09:44:47.300Z,-39.95
2022-10-01T09:45:47.335Z,-39.95
2022-10-01T09:46:47.301Z,-39.95
2022-10-01T09:47:47.391Z,-39.95
2022-10-01T09:48:47.353Z,-39.95
2022-10-01T09:49:47.359Z,-39.95
2022-10-01T09:50:47.377Z,-39.95
2022-10-01T09:51:47.371Z,-39.95
2022-10-01T09:53:06.705Z,12.83
2022-10-01T09:54:06.626Z,12.87
2022-10-01T09:55:06.908Z,12.92
2022-10-01T09:56:07.220Z,12.96
2022-10-01T09:57:07.589Z,13.03
2022-10-01T09:58:08.025Z,13.04
2022-10-01T09:59:08.138Z,13.08
2022-10-01T10:00:08.417Z,13.12
2022-10-01T10:01:08.678Z,13.11
2022-10-01T10:02:09.099Z,13.19
2022-10-01T10:03:09.347Z,13.23
2022-10-01T10:04:09.510Z,13.25
2022-10-01T10:05:09.990Z,13.29
2022-10-01T10:06:10.102Z,13.29
2022-10-01T10:07:10.364Z,13.29
2022-10-01T10:08:10.631Z,13.30
2022-10-01T10:09:10.903Z,13.28
2022-10-01T10:10:11.175Z,13.26
2022-10-01T10:11:11.444Z,13.22
2022-10-01T10:12:11.713Z,13.25
2022-10-01T10:13:12.041Z,13.28
2022-10-01T10:14:12.353Z,13.32
2022-10-01T10:15:12.552Z,13.41
2022-10-01T10:16:12.916Z,13.45
2022-10-01T10:17:13.155Z,13.46
2022-10-01T10:18:13.443Z,13.49
2022-10-01T10:19:13.774Z,13.54
2022-10-01T10:20:14.035Z,13.57
2022-10-01T10:21:14.305Z,13.60
2022-10-01T10:22:14.645Z,13.57
2022-10-01T10:23:15.316Z,13.60
2022-10-01T10:24:15.149Z,13.60
2022-10-01T10:25:15.408Z,13.60
2022-10-01T10:26:15.717Z,13.60
2022-10-01T10:27:15.979Z,13.60
2022-10-01T10:28:16.358Z,13.60
2022-10-01T10:29:16.662Z,13.57
2022-10-01T10:30:16.958Z,13.57
2022-10-01T10:31:17.379Z,13.60
2022-10-01T10:32:17.480Z,13.60
2022-10-01T10:33:18.871Z,13.60
2022-10-01T10:34:18.247Z,13.59
2022-10-01T10:35:18.327Z,13.52
2022-10-01T10:36:18.622Z,13.51
2022-10-01T10:37:18.912Z,13.49
2022-10-01T10:38:20.026Z,13.46
2022-10-01T10:39:19.428Z,13.49
2022-10-01T10:40:19.774Z,13.49
2022-10-01T10:41:20.072Z,13.51
2022-10-01T10:42:20.394Z,13.51
2022-10-01T10:43:20.710Z,13.52
2022-10-01T10:44:20.968Z,13.55
2022-10-01T10:45:21.243Z,13.49
2022-10-01T10:46:21.564Z,13.52
2022-10-01T10:47:21.914Z,13.49
2022-10-01T10:48:22.202Z,13.46
2022-10-01T10:49:22.502Z,13.46
2022-10-01T10:50:22.785Z,13.45
2022-10-01T10:51:23.094Z,13.44
2022-10-01T10:52:23.430Z,13.46
2022-10-01T10:53:23.611Z,13.51
2022-10-01T10:54:23.898Z,13.57
2022-10-01T10:55:24.185Z,13.60
2022-10-01T10:56:24.477Z,13.62
2022-10-01T10:57:24.811Z,13.62
2022-10-01T10:58:25.059Z,13.59
2022-10-01T10:59:25.331Z,13.59
2022-10-01T11:00:25.641Z,13.55
2022-10-01T11:01:25.983Z,13.55
2022-10-01T11:02:26.303Z,13.54
2022-10-01T11:03:26.569Z,13.55
2022-10-01T11:04:27.586Z,13.52
2022-10-01T11:05:27.072Z,13.51
2022-10-01T11:06:27.454Z,13.48
2022-10-01T11:07:27.684Z,13.45
2022-10-01T11:08:27.992Z,13.45
2022-10-01T11:09:28.417Z,13.46
2022-10-01T11:10:28.514Z,13.48
2022-10-01T11:11:28.824Z,13.51
2022-10-01T11:12:29.112Z,13.51
2022-10-01T11:13:29.378Z,13.51
2022-10-01T11:14:29.643Z,13.48
2022-10-01T11:15:29.948Z,13.46
2022-10-01T11:16:30.345Z,13.44
2022-10-01T11:17:30.567Z,13.42
2022-10-01T11:18:30.883Z,13.41
2022-10-01T11:19:31.196Z,13.39
2022-10-01T11:20:31.477Z,13.38
2022-10-01T11:21:31.873Z,13.36
2022-10-01T11:22:32.165Z,13.30
2022-10-01T11:23:32.423Z,13.28
2022-10-01T11:24:32.696Z,13.25
2022-10-01T11:25:32.985Z,13.25
2022-10-01T11:26:33.547Z,13.25
2022-10-01T11:27:33.540Z,13.25
2022-10-01T11:28:34.639Z,13.26
2022-10-01T11:29:34.055Z,13.23
2022-10-01T11:30:34.318Z,13.23
2022-10-01T11:31:34.623Z,13.23
2022-10-01T11:32:34.940Z,13.22
2022-10-01T11:33:35.231Z,13.15
2022-10-01T11:34:35.492Z,13.11
2022-10-01T11:35:35.747Z,13.12
2022-10-01T11:36:36.445Z,13.11
2022-10-01T11:37:36.407Z,13.10
2022-10-01T11:38:36.681Z,13.08
2022-10-01T11:39:36.950Z,13.08
2022-10-01T11:40:37.193Z,13.08
2022-10-01T11:41:37.463Z,13.07
2022-10-01T11:42:37.722Z,13.07
2022-10-01T11:43:38.086Z,13.05
2022-10-01T11:44:38.245Z,13.03
2022-10-01T11:45:38.516Z,13.03
2022-10-01T11:46:39.329Z,13.00
2022-10-01T11:47:39.124Z,13.01
2022-10-01T11:48:39.456Z,13.00
2022-10-01T11:49:39.725Z,13.01
2022-10-01T11:50:40.168Z,13.03
2022-10-01T11:51:40.353Z,13.01
2022-10-01T11:52:40.587Z,13.00
2022-10-01T11:53:40.848Z,12.96
2022-10-01T11:54:41.087Z,12.90
2022-10-01T11:55:41.345Z,12.86
2022-10-01T11:56:41.605Z,12.83
2022-10-01T11:57:41.910Z,12.82
2022-10-01T11:58:42.150Z,12.83
2022-10-01T11:59:42.481Z,12.83
2022-10-01T12:00:42.743Z,12.86
2022-10-01T12:01:43.054Z,12.83
2022-10-01T12:02:43.527Z,12.85
2022-10-01T12:03:43.690Z,12.86
2022-10-01T12:04:43.993Z,12.86
2022-10-01T12:05:44.328Z,12.85
2022-10-01T12:06:44.511Z,12.87
2022-10-01T12:07:44.852Z,12.89
2022-10-01T12:08:45.143Z,12.85
2022-10-01T12:09:45.383Z,12.83
2022-10-01T12:10:45.622Z,12.86
2022-10-01T12:11:45.879Z,12.82
2022-10-01T12:12:46.162Z,12.82
2022-10-01T12:13:46.450Z,12.77
2022-10-01T12:14:46.716Z,12.74
2022-10-01T12:15:47.036Z,12.71
2022-10-01T12:16:47.329Z,12.71
2022-10-01T12:17:47.612Z,12.70
2022-10-01T12:18:47.870Z,12.67
2022-10-01T12:19:48.165Z,12.64
2022-10-01T12:20:48.435Z,12.60
2022-10-01T12:21:48.694Z,12.57
2022-10-01T12:22:48.958Z,12.56
2022-10-01T12:23:49.227Z,12.52
2022-10-01T12:24:49.524Z,12.52
2022-10-01T12:25:49.817Z,12.52
2022-10-01T12:26:50.089Z,12.52
2022-10-01T12:27:50.394Z,12.49
2022-10-01T12:28:53.652Z,12.47
2022-10-01T12:29:51.961Z,12.47
2022-10-01T12:30:51.123Z,12.46
2022-10-01T12:31:51.487Z,12.45
2022-10-01T12:32:51.731Z,12.42
2022-10-01T12:33:51.960Z,12.41
2022-10-01T12:34:54.344Z,12.39